sensor_id;sensor_type;location;lat;lon;timestamp;temperature;humidity
33831;DHT22;20137;48.834;8.732;2022-12-29T00:02:15;8.20;99.90
33831;DHT22;20137;48.834;8.732;2022-12-29T00:04:41;7.80;99.90
33831;DHT22;20137;48.834;8.732;2022-12-29T00:07:07;7.60;99.90
33831;DHT22;20137;48.834;8.732;2022-12-29T00:09:33;7.60;99.90
33831;DHT22;20137;48.834;8.732;2022-12-29T00:12:00;7.40;99.90
33831;DHT22;20137;48.834;8.732;2022-12-29T00:14:26;7.20;99.90
33831;DHT22;20137;48.834;8.732;2022-12-29T00:17:10;7.00;99.90
33831;DHT22;20137;48.834;8.732;2022-12-29T00:19:36;6.90;99.90
33831;DHT22;20137;48.834;8.732;2022-12-29T00:22:20;6.90;99.90
33831;DHT22;20137;48.834;8.732;2022-12-29T00:25:05;6.80;99.90
33831;DHT22;20137;48.834;8.732;2022-12-29T00:27:49;6.80;99.90
33831;DHT22;20137;48.834;8.732;2022-12-29T00:30:35;6.80;99.90
33831;DHT22;20137;48.834;8.732;2022-12-29T00:33:21;6.80;99.90
33831;DHT22;20137;48.834;8.732;2022-12-29T00:36:19;6.70;99.90
33831;DHT22;20137;48.834;8.732;2022-12-29T00:38:53;6.80;99.90
33831;DHT22;20137;48.834;8.732;2022-12-29T00:41:39;6.80;99.90
33831;DHT22;20137;48.834;8.732;2022-12-29T00:44:23;6.70;99.90
33831;DHT22;20137;48.834;8.732;2022-12-29T00:46:49;7.10;99.90
33831;DHT22;20137;48.834;8.732;2022-12-29T00:49:15;7.50;99.90
33831;DHT22;20137;48.834;8.732;2022-12-29T00:54:22;8.70;99.90
33831;DHT22;20137;48.834;8.732;2022-12-29T00:56:49;8.90;99.90
33831;DHT22;20137;48.834;8.732;2022-12-29T00:59:15;9.10;99.90
33831;DHT22;20137;48.834;8.732;2022-12-29T01:01:41;9.30;99.90
33831;DHT22;20137;48.834;8.732;2022-12-29T01:04:08;9.60;99.90
33831;DHT22;20137;48.834;8.732;2022-12-29T01:06:36;9.70;99.90
33831;DHT22;20137;48.834;8.732;2022-12-29T01:09:02;9.80;99.90
33831;DHT22;20137;48.834;8.732;2022-12-29T01:11:47;9.80;99.90
33831;DHT22;20137;48.834;8.732;2022-12-29T01:14:12;9.80;99.90
33831;DHT22;20137;48.834;8.732;2022-12-29T01:16:38;9.90;99.90
33831;DHT22;20137;48.834;8.732;2022-12-29T01:19:03;9.90;99.90
33831;DHT22;20137;48.834;8.732;2022-12-29T01:21:29;9.80;99.90
33831;DHT22;20137;48.834;8.732;2022-12-29T01:23:55;10.00;99.90
33831;DHT22;20137;48.834;8.732;2022-12-29T01:26:21;10.10;99.90
33831;DHT22;20137;48.834;8.732;2022-12-29T01:28:46;10.20;99.90
33831;DHT22;20137;48.834;8.732;2022-12-29T01:31:14;10.30;99.90
33831;DHT22;20137;48.834;8.732;2022-12-29T01:33:40;10.40;99.90
33831;DHT22;20137;48.834;8.732;2022-12-29T01:36:09;10.60;99.90
33831;DHT22;20137;48.834;8.732;2022-12-29T01:38:36;10.50;99.90
33831;DHT22;20137;48.834;8.732;2022-12-29T01:41:02;10.60;99.90
33831;DHT22;20137;48.834;8.732;2022-12-29T01:43:58;10.50;99.90
33831;DHT22;20137;48.834;8.732;2022-12-29T01:46:39;10.50;99.90
33831;DHT22;20137;48.834;8.732;2022-12-29T01:51:38;10.60;99.90
33831;DHT22;20137;48.834;8.732;2022-12-29T01:54:10;10.60;99.90
33831;DHT22;20137;48.834;8.732;2022-12-29T01:56:37;10.70;99.90
33831;DHT22;20137;48.834;8.732;2022-12-29T01:59:10;10.80;99.90
33831;DHT22;20137;48.834;8.732;2022-12-29T02:01:36;10.80;99.90
33831;DHT22;20137;48.834;8.732;2022-12-29T02:04:02;10.70;99.90
33831;DHT22;20137;48.834;8.732;2022-12-29T02:06:33;10.80;99.90
33831;DHT22;20137;48.834;8.732;2022-12-29T02:09:01;10.80;99.90
33831;DHT22;20137;48.834;8.732;2022-12-29T02:11:29;10.80;99.90
33831;DHT22;20137;48.834;8.732;2022-12-29T02:13:55;10.80;99.90
33831;DHT22;20137;48.834;8.732;2022-12-29T02:16:29;10.80;99.90
33831;DHT22;20137;48.834;8.732;2022-12-29T02:28:08;10.90;99.90
33831;DHT22;20137;48.834;8.732;2022-12-29T02:30:54;10.80;99.90
33831;DHT22;20137;48.834;8.732;2022-12-29T02:38:59;10.50;99.90
33831;DHT22;20137;48.834;8.732;2022-12-29T02:41:52;10.50;99.90
33831;DHT22;20137;48.834;8.732;2022-12-29T02:44:42;10.50;99.90
33831;DHT22;20137;48.834;8.732;2022-12-29T02:47:49;10.50;99.90
33831;DHT22;20137;48.834;8.732;2022-12-29T02:50:27;10.50;99.90
33831;DHT22;20137;48.834;8.732;2022-12-29T02:53:00;10.60;99.90
33831;DHT22;20137;48.834;8.732;2022-12-29T02:55:27;10.60;99.90
33831;DHT22;20137;48.834;8.732;2022-12-29T02:58:22;10.60;99.90
33831;DHT22;20137;48.834;8.732;2022-12-29T03:01:24;10.70;99.90
33831;DHT22;20137;48.834;8.732;2022-12-29T03:04:21;10.60;99.90
33831;DHT22;20137;48.834;8.732;2022-12-29T03:07:22;10.70;99.90
33831;DHT22;20137;48.834;8.732;2022-12-29T03:09:52;10.70;99.90
33831;DHT22;20137;48.834;8.732;2022-12-29T03:15:21;10.80;99.90
33831;DHT22;20137;48.834;8.732;2022-12-29T03:18:12;10.80;99.90
33831;DHT22;20137;48.834;8.732;2022-12-29T03:20:58;10.80;99.90
33831;DHT22;20137;48.834;8.732;2022-12-29T03:23:27;10.80;99.90
33831;DHT22;20137;48.834;8.732;2022-12-29T03:25:56;10.70;99.90
33831;DHT22;20137;48.834;8.732;2022-12-29T03:28:28;10.50;99.90
33831;DHT22;20137;48.834;8.732;2022-12-29T03:30:57;10.40;99.90
33831;DHT22;20137;48.834;8.732;2022-12-29T03:33:27;10.40;99.90
33831;DHT22;20137;48.834;8.732;2022-12-29T03:35:59;10.30;99.90
33831;DHT22;20137;48.834;8.732;2022-12-29T03:38:27;10.30;99.90
33831;DHT22;20137;48.834;8.732;2022-12-29T03:40:57;10.30;99.90
33831;DHT22;20137;48.834;8.732;2022-12-29T03:43:25;10.20;99.90
33831;DHT22;20137;48.834;8.732;2022-12-29T03:45:51;10.20;99.90
33831;DHT22;20137;48.834;8.732;2022-12-29T03:48:16;10.30;99.90
33831;DHT22;20137;48.834;8.732;2022-12-29T03:50:42;10.10;99.90
33831;DHT22;20137;48.834;8.732;2022-12-29T03:53:08;10.10;99.90
33831;DHT22;20137;48.834;8.732;2022-12-29T03:55:33;10.20;99.90
33831;DHT22;20137;48.834;8.732;2022-12-29T03:57:59;10.20;99.90
33831;DHT22;20137;48.834;8.732;2022-12-29T04:00:25;10.10;99.90
33831;DHT22;20137;48.834;8.732;2022-12-29T04:02:51;10.20;99.90
33831;DHT22;20137;48.834;8.732;2022-12-29T04:05:17;10.20;99.90
33831;DHT22;20137;48.834;8.732;2022-12-29T04:07:42;10.20;99.90
33831;DHT22;20137;48.834;8.732;2022-12-29T04:10:08;10.20;99.90
33831;DHT22;20137;48.834;8.732;2022-12-29T04:12:34;10.10;99.90
33831;DHT22;20137;48.834;8.732;2022-12-29T04:14:59;10.00;99.90
33831;DHT22;20137;48.834;8.732;2022-12-29T04:17:25;10.00;99.90
33831;DHT22;20137;48.834;8.732;2022-12-29T04:19:51;10.10;99.90
33831;DHT22;20137;48.834;8.732;2022-12-29T04:22:16;10.00;99.90
33831;DHT22;20137;48.834;8.732;2022-12-29T04:24:42;9.90;99.90
33831;DHT22;20137;48.834;8.732;2022-12-29T04:27:08;9.80;99.90
33831;DHT22;20137;48.834;8.732;2022-12-29T04:29:33;10.00;99.90
33831;DHT22;20137;48.834;8.732;2022-12-29T04:31:59;9.90;99.90
33831;DHT22;20137;48.834;8.732;2022-12-29T04:34:25;9.90;99.90
33831;DHT22;20137;48.834;8.732;2022-12-29T04:36:50;10.00;99.90
33831;DHT22;20137;48.834;8.732;2022-12-29T04:39:16;10.10;99.90
33831;DHT22;20137;48.834;8.732;2022-12-29T04:41:41;10.10;99.90
33831;DHT22;20137;48.834;8.732;2022-12-29T04:44:07;10.10;99.90
33831;DHT22;20137;48.834;8.732;2022-12-29T04:46:32;10.00;99.90
33831;DHT22;20137;48.834;8.732;2022-12-29T04:48:58;10.10;99.90
33831;DHT22;20137;48.834;8.732;2022-12-29T04:51:25;9.90;99.90
33831;DHT22;20137;48.834;8.732;2022-12-29T04:53:51;9.80;99.90
33831;DHT22;20137;48.834;8.732;2022-12-29T04:56:17;9.70;99.90
33831;DHT22;20137;48.834;8.732;2022-12-29T04:58:43;9.60;99.90
33831;DHT22;20137;48.834;8.732;2022-12-29T05:01:08;9.60;99.90
33831;DHT22;20137;48.834;8.732;2022-12-29T05:03:34;9.60;99.90
33831;DHT22;20137;48.834;8.732;2022-12-29T05:05:59;9.60;99.90
33831;DHT22;20137;48.834;8.732;2022-12-29T05:08:25;9.60;99.90
33831;DHT22;20137;48.834;8.732;2022-12-29T05:10:51;9.60;99.90
33831;DHT22;20137;48.834;8.732;2022-12-29T05:13:18;9.60;99.90
33831;DHT22;20137;48.834;8.732;2022-12-29T05:15:53;9.60;99.90
33831;DHT22;20137;48.834;8.732;2022-12-29T05:18:18;9.60;99.90
33831;DHT22;20137;48.834;8.732;2022-12-29T05:20:45;9.60;99.90
33831;DHT22;20137;48.834;8.732;2022-12-29T05:23:10;9.70;99.90
33831;DHT22;20137;48.834;8.732;2022-12-29T05:25:36;9.70;99.90
33831;DHT22;20137;48.834;8.732;2022-12-29T05:28:02;9.60;99.90
33831;DHT22;20137;48.834;8.732;2022-12-29T05:30:27;9.60;99.90
33831;DHT22;20137;48.834;8.732;2022-12-29T05:32:53;9.60;99.90
33831;DHT22;20137;48.834;8.732;2022-12-29T05:35:19;9.70;99.90
33831;DHT22;20137;48.834;8.732;2022-12-29T05:37:44;9.80;99.90
33831;DHT22;20137;48.834;8.732;2022-12-29T05:40:10;9.90;99.90
33831;DHT22;20137;48.834;8.732;2022-12-29T05:42:36;9.70;99.90
33831;DHT22;20137;48.834;8.732;2022-12-29T05:45:02;9.70;99.90
33831;DHT22;20137;48.834;8.732;2022-12-29T05:47:28;9.70;99.90
33831;DHT22;20137;48.834;8.732;2022-12-29T05:49:53;9.70;99.90
33831;DHT22;20137;48.834;8.732;2022-12-29T05:52:19;9.70;99.90
33831;DHT22;20137;48.834;8.732;2022-12-29T05:54:44;9.60;99.90
33831;DHT22;20137;48.834;8.732;2022-12-29T05:57:10;9.60;99.90
33831;DHT22;20137;48.834;8.732;2022-12-29T05:59:36;9.70;99.90
33831;DHT22;20137;48.834;8.732;2022-12-29T06:02:01;9.60;99.90
33831;DHT22;20137;48.834;8.732;2022-12-29T06:04:27;9.60;99.90
33831;DHT22;20137;48.834;8.732;2022-12-29T06:06:52;9.60;99.90
33831;DHT22;20137;48.834;8.732;2022-12-29T06:09:18;9.70;99.90
33831;DHT22;20137;48.834;8.732;2022-12-29T06:11:44;9.60;99.90
33831;DHT22;20137;48.834;8.732;2022-12-29T06:14:10;9.60;99.90
33831;DHT22;20137;48.834;8.732;2022-12-29T06:16:35;9.70;99.90
33831;DHT22;20137;48.834;8.732;2022-12-29T06:19:01;9.70;99.90
33831;DHT22;20137;48.834;8.732;2022-12-29T06:21:27;9.60;99.90
33831;DHT22;20137;48.834;8.732;2022-12-29T06:23:52;9.60;99.90
33831;DHT22;20137;48.834;8.732;2022-12-29T06:26:19;9.60;99.90
33831;DHT22;20137;48.834;8.732;2022-12-29T06:28:44;9.70;99.90
33831;DHT22;20137;48.834;8.732;2022-12-29T06:31:10;9.60;99.90
33831;DHT22;20137;48.834;8.732;2022-12-29T06:33:37;9.70;99.90
33831;DHT22;20137;48.834;8.732;2022-12-29T06:36:03;9.80;99.90
33831;DHT22;20137;48.834;8.732;2022-12-29T06:38:29;9.80;99.90
33831;DHT22;20137;48.834;8.732;2022-12-29T06:40:54;9.80;99.90
33831;DHT22;20137;48.834;8.732;2022-12-29T06:43:20;9.80;99.90
33831;DHT22;20137;48.834;8.732;2022-12-29T06:45:46;9.80;99.90
33831;DHT22;20137;48.834;8.732;2022-12-29T06:48:11;9.80;99.90
33831;DHT22;20137;48.834;8.732;2022-12-29T06:50:37;9.70;99.90
33831;DHT22;20137;48.834;8.732;2022-12-29T06:53:03;9.70;99.90
33831;DHT22;20137;48.834;8.732;2022-12-29T06:55:29;9.80;99.90
33831;DHT22;20137;48.834;8.732;2022-12-29T06:57:56;9.70;99.90
33831;DHT22;20137;48.834;8.732;2022-12-29T07:00:22;9.60;99.90
33831;DHT22;20137;48.834;8.732;2022-12-29T07:02:48;9.60;99.90
33831;DHT22;20137;48.834;8.732;2022-12-29T07:05:13;9.50;99.90
33831;DHT22;20137;48.834;8.732;2022-12-29T07:07:39;9.50;99.90
33831;DHT22;20137;48.834;8.732;2022-12-29T07:10:05;9.50;99.90
33831;DHT22;20137;48.834;8.732;2022-12-29T07:12:30;9.60;99.90
33831;DHT22;20137;48.834;8.732;2022-12-29T07:14:56;9.60;99.90
33831;DHT22;20137;48.834;8.732;2022-12-29T07:17:21;9.80;99.90
33831;DHT22;20137;48.834;8.732;2022-12-29T07:19:47;9.70;99.90
33831;DHT22;20137;48.834;8.732;2022-12-29T07:22:12;9.80;99.90
33831;DHT22;20137;48.834;8.732;2022-12-29T07:24:38;9.80;99.90
33831;DHT22;20137;48.834;8.732;2022-12-29T07:27:04;9.90;99.90
33831;DHT22;20137;48.834;8.732;2022-12-29T07:29:29;10.00;99.90
33831;DHT22;20137;48.834;8.732;2022-12-29T07:31:55;10.10;99.90
33831;DHT22;20137;48.834;8.732;2022-12-29T07:34:21;10.10;99.90
33831;DHT22;20137;48.834;8.732;2022-12-29T07:36:46;10.20;99.90
33831;DHT22;20137;48.834;8.732;2022-12-29T07:39:12;10.10;99.90
33831;DHT22;20137;48.834;8.732;2022-12-29T07:41:38;10.10;99.90
33831;DHT22;20137;48.834;8.732;2022-12-29T07:44:04;10.10;99.90
33831;DHT22;20137;48.834;8.732;2022-12-29T07:46:29;10.10;99.90
33831;DHT22;20137;48.834;8.732;2022-12-29T07:48:55;10.10;99.90
33831;DHT22;20137;48.834;8.732;2022-12-29T07:51:21;10.10;99.90
33831;DHT22;20137;48.834;8.732;2022-12-29T07:53:46;10.20;99.90
33831;DHT22;20137;48.834;8.732;2022-12-29T07:56:12;10.20;99.90
33831;DHT22;20137;48.834;8.732;2022-12-29T07:58:38;10.30;99.90
33831;DHT22;20137;48.834;8.732;2022-12-29T08:01:03;10.30;99.90
33831;DHT22;20137;48.834;8.732;2022-12-29T08:03:29;10.30;99.90
33831;DHT22;20137;48.834;8.732;2022-12-29T08:05:56;10.30;99.90
33831;DHT22;20137;48.834;8.732;2022-12-29T08:08:22;10.30;99.90
33831;DHT22;20137;48.834;8.732;2022-12-29T08:10:47;10.30;99.90
33831;DHT22;20137;48.834;8.732;2022-12-29T08:13:13;10.30;99.90
33831;DHT22;20137;48.834;8.732;2022-12-29T08:15:39;10.30;99.90
33831;DHT22;20137;48.834;8.732;2022-12-29T08:18:05;10.40;99.90
33831;DHT22;20137;48.834;8.732;2022-12-29T08:20:31;10.30;99.90
33831;DHT22;20137;48.834;8.732;2022-12-29T08:22:57;10.30;99.90
33831;DHT22;20137;48.834;8.732;2022-12-29T08:25:23;10.40;99.90
33831;DHT22;20137;48.834;8.732;2022-12-29T08:27:48;10.40;99.90
33831;DHT22;20137;48.834;8.732;2022-12-29T08:30:14;10.50;99.90
33831;DHT22;20137;48.834;8.732;2022-12-29T08:32:40;10.60;99.90
33831;DHT22;20137;48.834;8.732;2022-12-29T08:35:06;10.60;99.90
33831;DHT22;20137;48.834;8.732;2022-12-29T08:37:33;10.70;99.90
33831;DHT22;20137;48.834;8.732;2022-12-29T08:39:58;10.70;99.90
33831;DHT22;20137;48.834;8.732;2022-12-29T08:42:25;10.80;99.90
33831;DHT22;20137;48.834;8.732;2022-12-29T08:44:59;10.80;99.90
33831;DHT22;20137;48.834;8.732;2022-12-29T08:47:25;10.90;99.90
33831;DHT22;20137;48.834;8.732;2022-12-29T08:49:51;10.90;99.90
33831;DHT22;20137;48.834;8.732;2022-12-29T08:52:17;11.00;99.90
33831;DHT22;20137;48.834;8.732;2022-12-29T08:54:43;11.10;99.90
33831;DHT22;20137;48.834;8.732;2022-12-29T08:57:08;11.10;99.90
33831;DHT22;20137;48.834;8.732;2022-12-29T08:59:34;11.10;99.90
33831;DHT22;20137;48.834;8.732;2022-12-29T09:01:59;11.20;99.90
33831;DHT22;20137;48.834;8.732;2022-12-29T09:04:27;11.10;99.90
33831;DHT22;20137;48.834;8.732;2022-12-29T09:06:53;11.10;99.90
33831;DHT22;20137;48.834;8.732;2022-12-29T09:09:19;11.20;99.90
33831;DHT22;20137;48.834;8.732;2022-12-29T09:11:45;11.30;99.90
33831;DHT22;20137;48.834;8.732;2022-12-29T09:14:11;11.30;99.90
33831;DHT22;20137;48.834;8.732;2022-12-29T09:16:37;11.30;99.90
33831;DHT22;20137;48.834;8.732;2022-12-29T09:19:03;11.40;99.90
33831;DHT22;20137;48.834;8.732;2022-12-29T09:21:29;11.40;99.90
33831;DHT22;20137;48.834;8.732;2022-12-29T09:23:55;11.40;99.90
33831;DHT22;20137;48.834;8.732;2022-12-29T09:26:21;11.40;99.90
33831;DHT22;20137;48.834;8.732;2022-12-29T09:28:46;11.30;99.90
33831;DHT22;20137;48.834;8.732;2022-12-29T09:31:12;11.40;99.90
33831;DHT22;20137;48.834;8.732;2022-12-29T09:33:38;11.30;99.90
33831;DHT22;20137;48.834;8.732;2022-12-29T09:36:04;11.30;99.90
33831;DHT22;20137;48.834;8.732;2022-12-29T09:38:30;11.30;99.90
33831;DHT22;20137;48.834;8.732;2022-12-29T09:41:01;11.30;99.90
33831;DHT22;20137;48.834;8.732;2022-12-29T09:46:35;11.20;99.90
33831;DHT22;20137;48.834;8.732;2022-12-29T09:51:48;11.10;99.90
33831;DHT22;20137;48.834;8.732;2022-12-29T09:57:01;11.00;99.90
33831;DHT22;20137;48.834;8.732;2022-12-29T09:59:39;11.10;99.90
33831;DHT22;20137;48.834;8.732;2022-12-29T10:02:38;11.10;99.90
33831;DHT22;20137;48.834;8.732;2022-12-29T10:05:26;11.10;99.90
33831;DHT22;20137;48.834;8.732;2022-12-29T10:10:38;11.40;99.90
33831;DHT22;20137;48.834;8.732;2022-12-29T10:13:23;11.40;99.90
33831;DHT22;20137;48.834;8.732;2022-12-29T10:23:52;11.40;99.90
33831;DHT22;20137;48.834;8.732;2022-12-29T10:26:30;11.50;99.90
33831;DHT22;20137;48.834;8.732;2022-12-29T10:29:05;11.50;99.90
33831;DHT22;20137;48.834;8.732;2022-12-29T10:31:58;11.40;99.90
33831;DHT22;20137;48.834;8.732;2022-12-29T10:34:29;11.30;99.90
33831;DHT22;20137;48.834;8.732;2022-12-29T10:37:00;11.40;99.90
33831;DHT22;20137;48.834;8.732;2022-12-29T10:39:32;11.50;99.90
33831;DHT22;20137;48.834;8.732;2022-12-29T10:42:16;11.70;99.90
33831;DHT22;20137;48.834;8.732;2022-12-29T10:44:46;11.80;99.90
33831;DHT22;20137;48.834;8.732;2022-12-29T10:47:16;11.90;99.90
33831;DHT22;20137;48.834;8.732;2022-12-29T10:49:45;12.00;99.90
33831;DHT22;20137;48.834;8.732;2022-12-29T10:52:13;12.10;99.90
33831;DHT22;20137;48.834;8.732;2022-12-29T10:54:53;12.30;99.90
33831;DHT22;20137;48.834;8.732;2022-12-29T10:57:27;12.10;99.90
33831;DHT22;20137;48.834;8.732;2022-12-29T10:59:54;12.30;99.90
33831;DHT22;20137;48.834;8.732;2022-12-29T11:05:45;12.30;99.90
33831;DHT22;20137;48.834;8.732;2022-12-29T11:08:15;12.40;99.90
33831;DHT22;20137;48.834;8.732;2022-12-29T11:10:43;12.50;99.90
33831;DHT22;20137;48.834;8.732;2022-12-29T11:13:25;12.50;99.90
33831;DHT22;20137;48.834;8.732;2022-12-29T11:15:51;12.50;99.90
33831;DHT22;20137;48.834;8.732;2022-12-29T11:18:26;12.50;99.90
33831;DHT22;20137;48.834;8.732;2022-12-29T11:21:03;12.40;99.90
33831;DHT22;20137;48.834;8.732;2022-12-29T11:23:34;12.30;99.90
33831;DHT22;20137;48.834;8.732;2022-12-29T11:26:22;12.30;99.90
33831;DHT22;20137;48.834;8.732;2022-12-29T11:29:14;12.20;99.90
33831;DHT22;20137;48.834;8.732;2022-12-29T11:31:54;12.30;99.90
33831;DHT22;20137;48.834;8.732;2022-12-29T11:34:34;12.20;99.90
33831;DHT22;20137;48.834;8.732;2022-12-29T11:37:06;12.00;99.90
33831;DHT22;20137;48.834;8.732;2022-12-29T11:42:06;11.70;99.90
33831;DHT22;20137;48.834;8.732;2022-12-29T11:44:42;11.50;99.90
33831;DHT22;20137;48.834;8.732;2022-12-29T11:47:13;11.40;99.90
33831;DHT22;20137;48.834;8.732;2022-12-29T11:49:50;11.30;99.90
33831;DHT22;20137;48.834;8.732;2022-12-29T11:52:24;11.40;99.90
33831;DHT22;20137;48.834;8.732;2022-12-29T11:54:52;11.40;99.90
33831;DHT22;20137;48.834;8.732;2022-12-29T11:57:19;11.40;99.90
33831;DHT22;20137;48.834;8.732;2022-12-29T11:59:53;11.50;99.90
33831;DHT22;20137;48.834;8.732;2022-12-29T12:02:50;11.60;99.90
33831;DHT22;20137;48.834;8.732;2022-12-29T12:05:33;11.60;99.90
33831;DHT22;20137;48.834;8.732;2022-12-29T12:11:04;11.40;99.90
33831;DHT22;20137;48.834;8.732;2022-12-29T12:13:40;11.40;99.90
33831;DHT22;20137;48.834;8.732;2022-12-29T12:16:15;11.40;99.90
33831;DHT22;20137;48.834;8.732;2022-12-29T12:18:52;11.40;99.90
33831;DHT22;20137;48.834;8.732;2022-12-29T12:21:38;11.40;99.90
33831;DHT22;20137;48.834;8.732;2022-12-29T12:26:59;11.20;99.90
33831;DHT22;20137;48.834;8.732;2022-12-29T12:32:45;11.30;99.90
33831;DHT22;20137;48.834;8.732;2022-12-29T12:38:43;11.50;99.90
33831;DHT22;20137;48.834;8.732;2022-12-29T12:41:40;11.50;99.90
33831;DHT22;20137;48.834;8.732;2022-12-29T12:50:14;11.80;99.90
33831;DHT22;20137;48.834;8.732;2022-12-29T12:58:46;11.60;99.90
33831;DHT22;20137;48.834;8.732;2022-12-29T13:01:50;11.70;99.90
33831;DHT22;20137;48.834;8.732;2022-12-29T13:04:48;11.90;99.90
33831;DHT22;20137;48.834;8.732;2022-12-29T13:23:23;11.60;99.90
33831;DHT22;20137;48.834;8.732;2022-12-29T13:28:25;11.40;99.90
33831;DHT22;20137;48.834;8.732;2022-12-29T13:36:49;11.10;99.90
33831;DHT22;20137;48.834;8.732;2022-12-29T13:39:23;11.20;99.90
33831;DHT22;20137;48.834;8.732;2022-12-29T13:41:53;11.20;99.90
33831;DHT22;20137;48.834;8.732;2022-12-29T13:44:30;11.20;99.90
33831;DHT22;20137;48.834;8.732;2022-12-29T13:46:58;11.20;99.90
33831;DHT22;20137;48.834;8.732;2022-12-29T13:49:25;11.20;99.90
33831;DHT22;20137;48.834;8.732;2022-12-29T13:51:58;11.00;99.90
33831;DHT22;20137;48.834;8.732;2022-12-29T13:57:49;10.80;99.90
33831;DHT22;20137;48.834;8.732;2022-12-29T14:00:19;10.80;99.90
33831;DHT22;20137;48.834;8.732;2022-12-29T14:07:47;10.70;99.90
33831;DHT22;20137;48.834;8.732;2022-12-29T14:10:48;10.80;99.90
33831;DHT22;20137;48.834;8.732;2022-12-29T14:13:20;10.80;99.90
33831;DHT22;20137;48.834;8.732;2022-12-29T14:15:55;10.90;99.90
33831;DHT22;20137;48.834;8.732;2022-12-29T14:18:28;10.80;99.90
33831;DHT22;20137;48.834;8.732;2022-12-29T14:23:38;10.70;99.90
33831;DHT22;20137;48.834;8.732;2022-12-29T14:28:36;10.70;99.90
33831;DHT22;20137;48.834;8.732;2022-12-29T14:31:49;10.70;99.90
33831;DHT22;20137;48.834;8.732;2022-12-29T14:36:39;10.70;99.90
33831;DHT22;20137;48.834;8.732;2022-12-29T14:39:43;10.70;99.90
33831;DHT22;20137;48.834;8.732;2022-12-29T14:47:44;10.70;99.90
33831;DHT22;20137;48.834;8.732;2022-12-29T14:50:13;10.70;99.90
33831;DHT22;20137;48.834;8.732;2022-12-29T14:52:55;10.70;99.90
33831;DHT22;20137;48.834;8.732;2022-12-29T14:55:30;10.60;99.90
33831;DHT22;20137;48.834;8.732;2022-12-29T14:58:00;10.60;99.90
33831;DHT22;20137;48.834;8.732;2022-12-29T15:00:34;10.60;99.90
33831;DHT22;20137;48.834;8.732;2022-12-29T15:03:02;10.50;99.90
33831;DHT22;20137;48.834;8.732;2022-12-29T15:08:04;10.70;99.90
33831;DHT22;20137;48.834;8.732;2022-12-29T15:10:37;10.30;99.90
33831;DHT22;20137;48.834;8.732;2022-12-29T15:13:09;9.60;99.90
33831;DHT22;20137;48.834;8.732;2022-12-29T15:15:38;9.10;99.90
33831;DHT22;20137;48.834;8.732;2022-12-29T15:18:14;8.60;99.90
33831;DHT22;20137;48.834;8.732;2022-12-29T15:20:42;8.40;99.90
33831;DHT22;20137;48.834;8.732;2022-12-29T15:23:12;8.40;99.90
33831;DHT22;20137;48.834;8.732;2022-12-29T15:25:55;8.30;99.90
33831;DHT22;20137;48.834;8.732;2022-12-29T15:28:21;8.30;99.90
33831;DHT22;20137;48.834;8.732;2022-12-29T15:31:03;8.30;99.90
33831;DHT22;20137;48.834;8.732;2022-12-29T15:33:29;8.30;99.90
33831;DHT22;20137;48.834;8.732;2022-12-29T15:35:57;8.30;99.90
33831;DHT22;20137;48.834;8.732;2022-12-29T15:38:30;8.20;99.90
33831;DHT22;20137;48.834;8.732;2022-12-29T15:41:48;8.30;99.90
33831;DHT22;20137;48.834;8.732;2022-12-29T15:44:15;8.30;99.90
33831;DHT22;20137;48.834;8.732;2022-12-29T15:46:42;8.30;99.90
33831;DHT22;20137;48.834;8.732;2022-12-29T15:49:08;8.30;99.90
33831;DHT22;20137;48.834;8.732;2022-12-29T15:51:38;8.30;99.90
33831;DHT22;20137;48.834;8.732;2022-12-29T15:54:05;8.40;99.90
33831;DHT22;20137;48.834;8.732;2022-12-29T15:56:32;8.30;99.90
33831;DHT22;20137;48.834;8.732;2022-12-29T15:58:59;8.20;99.90
33831;DHT22;20137;48.834;8.732;2022-12-29T16:01:33;8.20;99.90
33831;DHT22;20137;48.834;8.732;2022-12-29T16:04:04;8.20;99.90
33831;DHT22;20137;48.834;8.732;2022-12-29T16:06:54;8.20;99.90
33831;DHT22;20137;48.834;8.732;2022-12-29T16:09:32;8.20;99.90
33831;DHT22;20137;48.834;8.732;2022-12-29T16:12:00;8.30;99.90
33831;DHT22;20137;48.834;8.732;2022-12-29T16:14:42;8.20;99.90
33831;DHT22;20137;48.834;8.732;2022-12-29T16:17:14;8.20;99.90
33831;DHT22;20137;48.834;8.732;2022-12-29T16:19:43;8.20;99.90
33831;DHT22;20137;48.834;8.732;2022-12-29T16:25:18;8.20;99.90
33831;DHT22;20137;48.834;8.732;2022-12-29T16:27:44;8.20;99.90
33831;DHT22;20137;48.834;8.732;2022-12-29T16:30:25;8.10;99.90
33831;DHT22;20137;48.834;8.732;2022-12-29T16:32:56;8.10;99.90
33831;DHT22;20137;48.834;8.732;2022-12-29T16:35:38;8.10;99.90
33831;DHT22;20137;48.834;8.732;2022-12-29T16:38:14;8.10;99.90
33831;DHT22;20137;48.834;8.732;2022-12-29T16:40:53;8.30;99.90
33831;DHT22;20137;48.834;8.732;2022-12-29T16:43:27;8.20;99.90
33831;DHT22;20137;48.834;8.732;2022-12-29T16:46:11;8.20;99.90
33831;DHT22;20137;48.834;8.732;2022-12-29T16:48:48;8.30;99.90
33831;DHT22;20137;48.834;8.732;2022-12-29T16:51:35;8.20;99.90
33831;DHT22;20137;48.834;8.732;2022-12-29T16:54:02;8.30;99.90
33831;DHT22;20137;48.834;8.732;2022-12-29T16:56:31;8.30;99.90
33831;DHT22;20137;48.834;8.732;2022-12-29T17:02:07;8.20;99.90
33831;DHT22;20137;48.834;8.732;2022-12-29T17:04:33;8.20;99.90
33831;DHT22;20137;48.834;8.732;2022-12-29T17:06:59;8.30;99.90
33831;DHT22;20137;48.834;8.732;2022-12-29T17:09:26;8.20;99.90
33831;DHT22;20137;48.834;8.732;2022-12-29T17:11:55;8.10;99.90
33831;DHT22;20137;48.834;8.732;2022-12-29T17:14:26;8.20;99.90
33831;DHT22;20137;48.834;8.732;2022-12-29T17:16:53;8.20;99.90
33831;DHT22;20137;48.834;8.732;2022-12-29T17:19:24;8.20;99.90
33831;DHT22;20137;48.834;8.732;2022-12-29T17:21:52;8.20;99.90
33831;DHT22;20137;48.834;8.732;2022-12-29T17:24:18;8.20;99.90
33831;DHT22;20137;48.834;8.732;2022-12-29T17:26:50;8.20;99.90
33831;DHT22;20137;48.834;8.732;2022-12-29T17:32:00;8.30;99.90
33831;DHT22;20137;48.834;8.732;2022-12-29T17:34:25;8.30;99.90
33831;DHT22;20137;48.834;8.732;2022-12-29T17:36:51;8.20;99.90
33831;DHT22;20137;48.834;8.732;2022-12-29T17:39:17;8.20;99.90
33831;DHT22;20137;48.834;8.732;2022-12-29T17:41:44;8.20;99.90
33831;DHT22;20137;48.834;8.732;2022-12-29T17:44:15;8.10;99.90
33831;DHT22;20137;48.834;8.732;2022-12-29T17:46:42;8.00;99.90
33831;DHT22;20137;48.834;8.732;2022-12-29T17:49:13;7.90;99.90
33831;DHT22;20137;48.834;8.732;2022-12-29T17:51:40;7.90;99.90
33831;DHT22;20137;48.834;8.732;2022-12-29T17:54:19;7.90;99.90
33831;DHT22;20137;48.834;8.732;2022-12-29T17:56:45;7.80;99.90
33831;DHT22;20137;48.834;8.732;2022-12-29T17:59:11;7.70;99.90
33831;DHT22;20137;48.834;8.732;2022-12-29T18:01:42;7.70;99.90
33831;DHT22;20137;48.834;8.732;2022-12-29T18:04:18;7.70;99.90
33831;DHT22;20137;48.834;8.732;2022-12-29T18:06:45;7.60;99.90
33831;DHT22;20137;48.834;8.732;2022-12-29T18:09:12;7.60;99.90
33831;DHT22;20137;48.834;8.732;2022-12-29T18:11:42;7.50;99.90